createdAt,value
2018-10-05T00:01:57.691Z,100020.41
2018-10-05T00:04:26.332Z,100020.05
2018-10-05T00:06:54.912Z,100023.80
2018-10-05T00:09:23.444Z,100029.60
2018-10-05T00:11:52.069Z,100025.69
2018-10-05T00:14:20.640Z,100026.88
2018-10-05T00:16:49.281Z,100023.70
2018-10-05T00:19:17.828Z,100023.92
2018-10-05T00:21:46.409Z,100027.19
2018-10-05T00:24:14.961Z,100032.56
2018-10-05T00:26:43.576Z,100034.57
2018-10-05T00:29:12.205Z,100035.12
2018-10-05T00:31:41.295Z,100030.50
2018-10-05T00:34:09.843Z,100020.41
2018-10-05T00:36:38.400Z,100020.84
2018-10-05T00:39:08.853Z,100014.88
2018-10-05T00:41:37.448Z,100013.20
2018-10-05T00:44:06.091Z,100002.56
2018-10-05T00:46:34.654Z,100001.98
2018-10-05T00:49:03.241Z,99998.69
2018-10-05T00:51:31.801Z,99998.53
2018-10-05T00:54:00.380Z,100000.00
2018-10-05T00:56:28.917Z,99997.41
2018-10-05T00:58:57.546Z,99994.70
2018-10-05T01:01:26.101Z,99999.00
2018-10-05T01:03:54.681Z,99994.95
2018-10-05T01:06:23.227Z,99986.03
2018-10-05T01:08:51.878Z,99986.34
2018-10-05T01:11:20.479Z,99985.13
2018-10-05T01:13:49.021Z,99983.43
2018-10-05T01:16:17.570Z,99986.00
2018-10-05T01:18:46.181Z,99982.98
2018-10-05T01:21:14.733Z,99984.91
2018-10-05T01:23:43.281Z,99984.57
2018-10-05T01:26:11.798Z,99972.40
2018-10-05T01:28:40.365Z,99971.42
2018-10-05T01:31:08.922Z,99977.00
2018-10-05T01:33:37.472Z,99975.19
2018-10-05T01:36:06.008Z,99968.38
2018-10-05T01:38:34.545Z,99967.13
2018-10-05T01:41:03.069Z,99963.57
2018-10-05T01:43:31.617Z,99961.55
2018-10-05T01:46:00.130Z,99955.95
2018-10-05T01:48:29.517Z,99946.92
2018-10-05T01:50:58.037Z,99949.91
2018-10-05T01:53:26.592Z,99953.58
2018-10-05T01:55:55.105Z,99943.87
2018-10-05T01:58:23.649Z,99938.75
2018-10-05T02:00:52.160Z,99937.97
2018-10-05T02:03:20.725Z,99922.44
2018-10-05T02:05:49.233Z,99917.54
2018-10-05T02:08:17.792Z,99911.16
2018-10-05T02:10:46.300Z,99909.79
2018-10-05T02:13:14.845Z,99912.04
2018-10-05T02:15:43.369Z,99906.70
2018-10-05T02:18:11.941Z,99902.61
2018-10-05T02:20:40.459Z,99905.75
2018-10-05T02:23:09.017Z,99903.16
2018-10-05T02:25:37.532Z,99905.23
2018-10-05T02:28:06.054Z,99902.00
2018-10-05T02:30:34.631Z,99899.08
2018-10-05T02:33:03.190Z,99899.15
2018-10-05T02:35:31.701Z,99899.91
2018-10-05T02:38:00.216Z,99895.44
2018-10-05T02:40:28.806Z,99895.35
2018-10-05T02:42:57.325Z,99891.76
2018-10-05T02:45:25.873Z,99892.80
2018-10-05T02:47:54.372Z,99891.75
2018-10-05T02:50:22.929Z,99889.75
2018-10-05T02:52:51.521Z,99889.34
2018-10-05T02:55:20.124Z,99886.92
2018-10-05T02:57:48.872Z,99885.63
2018-10-05T03:00:28.548Z,99881.80
2018-10-05T03:02:57.078Z,99881.56
2018-10-05T03:05:25.623Z,99875.94
2018-10-05T03:07:54.117Z,99871.89
2018-10-05T03:10:22.684Z,99872.20
2018-10-05T03:12:51.208Z,99868.30
2018-10-05T03:15:19.794Z,99868.57
2018-10-05T03:17:48.355Z,99864.97
2018-10-05T03:20:16.920Z,99860.47
2018-10-05T03:22:45.458Z,99864.44
2018-10-05T03:25:14.033Z,99860.31
2018-10-05T03:27:42.581Z,99856.09
2018-10-05T03:30:11.141Z,99855.10
2018-10-05T03:32:39.688Z,99853.14
2018-10-05T03:35:08.276Z,99844.48
2018-10-05T03:37:36.815Z,99858.25
2018-10-05T03:40:05.493Z,99847.91
2018-10-05T03:42:34.029Z,99845.03
2018-10-05T03:45:02.592Z,99850.44
2018-10-05T03:47:31.132Z,99844.44
2018-10-05T03:49:59.695Z,99842.36
2018-10-05T03:52:28.234Z,99840.50
2018-10-05T03:54:56.808Z,99837.56
2018-10-05T03:57:25.345Z,99839.69
2018-10-05T03:59:54.149Z,99839.27
2018-10-05T04:02:22.699Z,99842.94
2018-10-05T04:04:51.272Z,99838.53
2018-10-05T04:07:19.804Z,99837.38
2018-10-05T04:09:48.364Z,99832.13
2018-10-05T04:12:16.941Z,99838.81
2018-10-05T04:14:45.492Z,99831.06
2018-10-05T04:17:14.149Z,99826.60
2018-10-05T04:19:42.660Z,99836.49
2018-10-05T04:22:11.315Z,99823.91
2018-10-05T04:24:39.840Z,99832.68
2018-10-05T04:27:08.431Z,99827.22
2018-10-05T04:29:36.944Z,99827.68
2018-10-05T04:32:05.501Z,99826.25
2018-10-05T04:34:34.042Z,99822.26
2018-10-05T04:37:02.596Z,99821.20
2018-10-05T04:39:31.124Z,99814.23
2018-10-05T04:41:59.681Z,99811.66
2018-10-05T04:44:28.201Z,99815.91
2018-10-05T04:46:56.772Z,99811.48
2018-10-05T04:49:25.350Z,99809.95
2018-10-05T04:51:53.881Z,99813.34
2018-10-05T04:54:22.413Z,99803.86
2018-10-05T04:56:51.072Z,99811.78
2018-10-05T04:59:19.536Z,99810.55
2018-10-05T05:01:49.675Z,99813.56
2018-10-05T05:04:18.249Z,99811.70
2018-10-05T05:06:46.807Z,99810.33
2018-10-05T05:09:15.329Z,99810.06
2018-10-05T05:11:43.868Z,99811.48
2018-10-05T05:14:12.401Z,99818.04
2018-10-05T05:16:40.958Z,99819.30
2018-10-05T05:19:09.559Z,99818.70
2018-10-05T05:21:38.192Z,99815.69
2018-10-05T05:24:06.784Z,99809.67
2018-10-05T05:26:35.389Z,99805.20
2018-10-05T05:29:03.941Z,99803.32
2018-10-05T05:31:32.528Z,99806.32
2018-10-05T05:34:01.123Z,99815.34
2018-10-05T05:36:29.708Z,99812.88
2018-10-05T05:38:58.291Z,99806.85
2018-10-05T05:41:26.861Z,99807.53
2018-10-05T05:43:55.401Z,99804.45
2018-10-05T05:46:24.103Z,99813.64
2018-10-05T05:48:52.683Z,99811.50
2018-10-05T05:51:21.620Z,99817.23
2018-10-05T05:53:50.248Z,99811.49
2018-10-05T05:56:18.993Z,99808.05
2018-10-05T05:58:47.547Z,99808.55
2018-10-05T06:01:16.296Z,99811.69
2018-10-05T06:03:44.733Z,99815.91
2018-10-05T06:06:19.812Z,99814.44
2018-10-05T06:08:52.040Z,99815.61
2018-10-05T06:11:20.969Z,99814.39
2018-10-05T06:13:49.715Z,99818.40
2018-10-05T06:16:18.490Z,99823.10
2018-10-05T06:18:47.100Z,99829.55
2018-10-05T06:21:15.649Z,99831.70
2018-10-05T06:23:44.284Z,99838.01
2018-10-05T06:26:14.124Z,99836.91
2018-10-05T06:28:42.652Z,99840.02
2018-10-05T06:31:11.510Z,99845.54
2018-10-05T06:33:40.089Z,99851.44
2018-10-05T06:36:08.964Z,99851.75
2018-10-05T06:38:37.517Z,99856.41
2018-10-05T06:41:06.129Z,99849.47
2018-10-05T06:43:35.066Z,99856.27
2018-10-05T06:46:03.661Z,99859.33
2018-10-05T06:48:32.253Z,99850.29
2018-10-05T06:51:00.868Z,99851.13
2018-10-05T06:53:29.592Z,99851.45
2018-10-05T06:55:59.520Z,99846.89
2018-10-05T06:58:28.653Z,99850.02
2018-10-05T07:00:58.472Z,99855.81
2018-10-05T07:03:27.185Z,99848.27
2018-10-05T07:06:02.131Z,99844.38
2018-10-05T07:08:37.679Z,99843.55
2018-10-05T07:11:08.216Z,99840.25
2018-10-05T07:13:43.588Z,99836.62
2018-10-05T07:16:20.176Z,99836.28
2018-10-05T07:18:56.468Z,99838.87
2018-10-05T07:21:32.397Z,99833.93
2018-10-05T07:24:10.193Z,99832.98
2018-10-05T07:26:44.590Z,99840.31
2018-10-05T07:29:20.576Z,99842.32
2018-10-05T07:31:56.212Z,99854.15
2018-10-05T07:34:33.437Z,99845.34
2018-10-05T07:37:11.490Z,99843.65
2018-10-05T07:39:40.221Z,99839.09
2018-10-05T07:42:08.809Z,99841.89
2018-10-05T07:44:37.344Z,99838.84
2018-10-05T07:47:05.961Z,99843.00
2018-10-05T07:49:34.484Z,99853.41
2018-10-05T07:52:03.049Z,99844.73
2018-10-05T07:54:36.641Z,99840.48
2018-10-05T07:57:10.488Z,99842.91
2018-10-05T07:59:39.784Z,99841.64
2018-10-05T08:02:10.648Z,99842.73
2018-10-05T08:04:41.748Z,99842.98
2018-10-05T08:07:12.101Z,99834.09
2018-10-05T08:09:46.281Z,99831.76
2018-10-05T08:12:21.643Z,99829.28
2018-10-05T08:14:53.569Z,99825.03
2018-10-05T08:17:23.176Z,99817.73
2018-10-05T08:19:52.183Z,99818.40
2018-10-05T08:22:27.349Z,99823.02
2018-10-05T08:25:00.298Z,99818.08
2018-10-05T08:27:29.736Z,99810.99
2018-10-05T08:29:59.064Z,99810.37
2018-10-05T08:32:27.628Z,99810.23
2018-10-05T08:35:03.277Z,99811.81
2018-10-05T08:37:36.053Z,99812.38
2018-10-05T08:40:05.783Z,99805.91
2018-10-05T08:42:37.476Z,99801.44
2018-10-05T08:45:06.060Z,99793.59
2018-10-05T08:47:34.787Z,99796.23
2018-10-05T08:50:03.399Z,99796.74
2018-10-05T08:52:36.930Z,99792.08
2018-10-05T08:55:06.787Z,99791.61
2018-10-05T08:57:35.762Z,99784.55
2018-10-05T09:00:08.710Z,99777.12
2018-10-05T09:02:40.921Z,99773.73
2018-10-05T09:05:12.637Z,99774.56
2018-10-05T09:07:46.008Z,99773.42
2018-10-05T09:10:14.814Z,99776.82
2018-10-05T09:12:43.771Z,99777.77
2018-10-05T09:15:14.009Z,99767.60
2018-10-05T09:17:44.728Z,99768.23
2018-10-05T09:20:15.197Z,99766.27
2018-10-05T09:22:48.851Z,99760.91
2018-10-05T09:25:17.824Z,99763.13
2018-10-05T09:27:46.376Z,99755.06
2018-10-05T09:30:14.949Z,99758.72
2018-10-05T09:32:43.468Z,99754.91
2018-10-05T09:35:12.086Z,99745.24
2018-10-05T09:37:41.165Z,99739.02
2018-10-05T09:40:10.417Z,99732.91
2018-10-05T09:42:39.097Z,99732.80
2018-10-05T09:45:07.843Z,99722.14
2018-10-05T09:47:36.358Z,99722.73
2018-10-05T09:50:04.945Z,99707.38
2018-10-05T09:52:33.546Z,99701.55
2018-10-05T09:55:02.072Z,99705.09
2018-10-05T09:57:30.772Z,99696.30
2018-10-05T09:59:59.470Z,99701.84
2018-10-05T10:03:32.799Z,99693.14
2018-10-05T10:06:02.727Z,99690.88
2018-10-05T10:08:31.366Z,99686.00
2018-10-05T10:10:59.901Z,99688.16
2018-10-05T10:13:29.739Z,99686.78
2018-10-05T10:15:58.837Z,99687.08
2018-10-05T10:18:31.392Z,99684.94
2018-10-05T10:21:00.147Z,99680.53
2018-10-05T10:23:29.042Z,99686.55
2018-10-05T10:25:59.004Z,99680.87
2018-10-05T10:28:29.073Z,99675.23
2018-10-05T10:30:58.224Z,99673.50
2018-10-05T10:33:26.762Z,99674.08
2018-10-05T10:36:01.713Z,99667.98
2018-10-05T10:38:33.257Z,99662.73
2018-10-05T10:41:05.990Z,99658.14
2018-10-05T10:43:36.328Z,99648.88
2018-10-05T10:46:08.675Z,99652.85
2018-10-05T10:48:39.652Z,99652.84
2018-10-05T10:51:08.209Z,99647.92
2018-10-05T10:53:36.735Z,99645.56
2018-10-05T10:56:10.603Z,99646.67
2018-10-05T10:58:40.112Z,99638.94
2018-10-05T11:01:13.543Z,99639.09
2018-10-05T11:03:47.679Z,99636.53
2018-10-05T11:06:19.996Z,99630.92
2018-10-05T11:08:48.752Z,99620.45
2018-10-05T11:11:17.313Z,99615.31
2018-10-05T11:13:45.852Z,99612.92
2018-10-05T11:16:14.434Z,99613.23
2018-10-05T11:18:43.064Z,99602.83
2018-10-05T11:21:15.169Z,99594.35
2018-10-05T11:23:49.325Z,99588.02
2018-10-05T11:26:18.156Z,99580.73
2018-10-05T11:28:46.720Z,99585.06
2018-10-05T11:31:15.294Z,99575.86
2018-10-05T11:33:43.853Z,99571.62
2018-10-05T11:36:12.412Z,99563.36
2018-10-05T11:38:41.512Z,99561.20
2018-10-05T11:41:10.411Z,99561.19
2018-10-05T11:43:38.961Z,99553.86
2018-10-05T11:46:08.206Z,99556.91
2018-10-05T11:48:37.139Z,99550.87
2018-10-05T11:51:07.220Z,99549.92
2018-10-05T11:53:35.805Z,99552.34
2018-10-05T11:56:04.623Z,99543.27
2018-10-05T11:58:33.168Z,99537.66
2018-10-05T12:01:02.104Z,99531.98
2018-10-05T12:03:30.654Z,99535.00
2018-10-05T12:05:59.188Z,99530.05
2018-10-05T12:08:27.751Z,99528.61
2018-10-05T12:10:56.352Z,99521.34
2018-10-05T12:13:24.946Z,99517.11
2018-10-05T12:15:53.489Z,99517.37
2018-10-05T12:18:22.101Z,99511.09
2018-10-05T12:20:51.910Z,99513.72
2018-10-05T12:23:29.492Z,99511.64
2018-10-05T12:26:01.219Z,99505.72
2018-10-05T12:28:33.531Z,99498.73
2018-10-05T12:31:03.676Z,99495.72
2018-10-05T12:33:34.796Z,99487.97
2018-10-05T12:36:06.426Z,99490.89
2018-10-05T12:38:35.094Z,99488.31
2018-10-05T12:41:03.644Z,99488.61
2018-10-05T12:43:32.221Z,99491.44
2018-10-05T12:46:02.984Z,99480.98
2018-10-05T12:48:31.561Z,99482.23
2018-10-05T12:51:01.610Z,99476.25
2018-10-05T12:53:34.121Z,99466.92
2018-10-05T12:56:02.848Z,99475.22
2018-10-05T12:58:31.411Z,99472.77
2018-10-05T13:01:00.009Z,99463.90
2018-10-05T13:03:28.710Z,99462.18
2018-10-05T13:05:57.260Z,99449.95
2018-10-05T13:08:25.874Z,99451.85
2018-10-05T13:10:54.416Z,99446.69
2018-10-05T13:13:23.058Z,99446.02
2018-10-05T13:15:51.612Z,99444.37
2018-10-05T13:18:20.212Z,99444.62
2018-10-05T13:20:48.749Z,99443.13
2018-10-05T13:23:17.323Z,99444.47
2018-10-05T13:25:45.900Z,99449.23
2018-10-05T13:28:14.460Z,99442.52
2018-10-05T13:30:42.988Z,99437.89
2018-10-05T13:33:11.540Z,99436.87
2018-10-05T13:35:40.060Z,99436.95
2018-10-05T13:38:08.628Z,99435.34
2018-10-05T13:40:37.194Z,99426.70
2018-10-05T13:43:05.782Z,99425.65
2018-10-05T13:45:34.301Z,99422.41
2018-10-05T13:48:02.886Z,99431.63
2018-10-05T13:50:31.424Z,99421.92
2018-10-05T13:53:00.025Z,99420.25
2018-10-05T13:55:28.561Z,99416.82
2018-10-05T13:58:02.324Z,99413.59
2018-10-05T14:00:35.397Z,99413.98
2018-10-05T14:03:07.367Z,99412.85
2018-10-05T14:05:40.698Z,99415.46
2018-10-05T14:08:10.934Z,99419.33
2018-10-05T14:10:41.950Z,99408.18
2018-10-05T14:13:12.953Z,99405.50
2018-10-05T14:15:43.114Z,99398.65
2018-10-05T14:18:12.677Z,99407.20
2018-10-05T14:20:45.553Z,99405.69
2018-10-05T14:23:19.483Z,99396.64
2018-10-05T14:25:53.189Z,99389.13
2018-10-05T14:28:25.513Z,99386.46
2018-10-05T14:30:58.789Z,99390.65
2018-10-05T14:33:30.465Z,99385.16
2018-10-05T14:36:06.345Z,99385.42
2018-10-05T14:38:38.429Z,99377.09
2018-10-05T14:41:06.998Z,99380.62
2018-10-05T14:43:41.489Z,99378.92
2018-10-05T14:46:13.616Z,99373.82
2018-10-05T14:48:47.217Z,99371.34
2018-10-05T14:51:18.544Z,99367.98
2018-10-05T14:53:50.815Z,99368.62
2018-10-05T14:56:20.907Z,99360.80
2018-10-05T14:58:52.086Z,99361.37
2018-10-05T15:01:22.908Z,99366.64
2018-10-05T15:03:51.683Z,99358.24
2018-10-05T15:06:22.947Z,99357.53
2018-10-05T15:09:00.629Z,99355.01
2018-10-05T15:11:31.413Z,99353.87
2018-10-05T15:14:04.000Z,99352.25
2018-10-05T15:16:36.447Z,99346.42
2018-10-05T15:19:08.760Z,99347.02
2018-10-05T15:21:37.952Z,99338.66
2018-10-05T15:24:08.535Z,99339.09
2018-10-05T15:26:37.260Z,99338.32
2018-10-05T15:29:10.265Z,99337.84
2018-10-05T15:31:40.837Z,99339.27
2018-10-05T15:34:11.065Z,99333.80
2018-10-05T15:36:44.206Z,99325.41
2018-10-05T15:39:13.462Z,99323.51
2018-10-05T15:41:45.278Z,99319.31
2018-10-05T15:44:39.775Z,99313.77
2018-10-05T15:47:12.955Z,99308.81
2018-10-05T15:49:42.217Z,99304.86
2018-10-05T15:52:14.970Z,99305.05
2018-10-05T15:54:46.782Z,99297.00
2018-10-05T15:57:19.789Z,99304.77
2018-10-05T15:59:51.318Z,99304.73
2018-10-05T16:02:23.220Z,99298.04
2018-10-05T16:04:56.107Z,99297.58
2018-10-05T16:07:27.849Z,99299.27
2018-10-05T16:10:02.986Z,99284.52
2018-10-05T16:12:31.779Z,99290.79
2018-10-05T16:15:00.252Z,99283.14
2018-10-05T16:17:28.837Z,99284.69
2018-10-05T16:19:57.404Z,99285.03
2018-10-05T16:22:32.552Z,99286.60
2018-10-05T16:25:08.923Z,99283.02
2018-10-05T16:27:39.337Z,99277.34
2018-10-05T16:30:11.386Z,99275.88
2018-10-05T16:32:41.653Z,99278.69
2018-10-05T16:35:11.961Z,99276.17
2018-10-05T16:37:41.749Z,99276.64
2018-10-05T16:40:13.464Z,99267.23
2018-10-05T16:42:46.901Z,99271.63
2018-10-05T16:45:20.670Z,99267.27
2018-10-05T16:47:51.842Z,99276.24
2018-10-05T16:50:23.338Z,99266.55
2018-10-05T16:52:52.748Z,99270.02
2018-10-05T16:55:30.626Z,99270.59
2018-10-05T16:58:05.531Z,99274.86
2018-10-05T17:00:37.219Z,99262.08
2018-10-05T17:03:13.401Z,99266.32
2018-10-05T17:05:49.184Z,99265.58
2018-10-05T17:08:28.007Z,99265.75
2018-10-05T17:10:58.301Z,99267.08
2018-10-05T17:13:29.752Z,99263.50
2018-10-05T17:16:02.015Z,99266.42
2018-10-05T17:18:34.906Z,99267.36
2018-10-05T17:21:03.592Z,99264.66
2018-10-05T17:23:37.178Z,99263.48
2018-10-05T17:26:11.205Z,99269.36
2018-10-05T17:28:43.241Z,99269.52
2018-10-05T17:31:16.061Z,99270.02
2018-10-05T17:33:48.853Z,99269.52
2018-10-05T17:36:19.657Z,99261.53
2018-10-05T17:38:58.363Z,99266.45
2018-10-05T17:41:41.973Z,99265.14
2018-10-05T17:44:15.954Z,99269.50
2018-10-05T17:46:46.253Z,99264.59
2018-10-05T17:49:16.250Z,99269.94
2018-10-05T17:51:51.971Z,99264.59
2018-10-05T17:54:22.837Z,99266.73
2018-10-05T17:56:52.772Z,99263.10
2018-10-05T17:59:24.235Z,99272.62
2018-10-05T18:02:03.038Z,99262.88
2018-10-05T18:04:33.181Z,99265.27
2018-10-05T18:07:04.779Z,99265.16
2018-10-05T18:09:35.263Z,99262.56
2018-10-05T18:12:10.403Z,99271.45
2018-10-05T18:14:43.561Z,99269.17
2018-10-05T18:17:16.639Z,99266.33
2018-10-05T18:19:48.004Z,99271.03
2018-10-05T18:22:16.704Z,99262.52
2018-10-05T18:24:47.129Z,99266.59
2018-10-05T18:27:18.257Z,99265.14
2018-10-05T18:29:50.401Z,99271.98
2018-10-05T18:32:22.806Z,99271.02
2018-10-05T18:34:51.868Z,99269.59
2018-10-05T18:37:21.853Z,99268.88
2018-10-05T18:39:54.698Z,99270.30
2018-10-05T18:42:24.205Z,99269.67
2018-10-05T18:44:56.209Z,99270.77
2018-10-05T18:47:30.214Z,99263.09
2018-10-05T18:49:59.774Z,99269.69
2018-10-05T18:52:29.044Z,99269.67
2018-10-05T18:55:04.410Z,99271.19
2018-10-05T18:57:36.154Z,99276.02
2018-10-05T19:00:10.080Z,99275.64
2018-10-05T19:02:44.252Z,99274.77
2018-10-05T19:05:14.194Z,99271.48
2018-10-05T19:07:46.337Z,99274.72
2018-10-05T19:10:19.082Z,99267.41
2018-10-05T19:12:49.762Z,99265.00
2018-10-05T19:15:19.229Z,99267.38
2018-10-05T19:17:50.793Z,99267.25
2018-10-05T19:20:19.346Z,99263.38
2018-10-05T19:22:47.896Z,99260.61
2018-10-05T19:25:16.437Z,99260.39
2018-10-05T19:27:45.036Z,99255.13
2018-10-05T19:30:13.717Z,99254.92
2018-10-05T19:32:42.266Z,99258.13
2018-10-05T19:35:10.820Z,99253.69
2018-10-05T19:37:39.429Z,99258.69
2018-10-05T19:40:08.608Z,99256.13
2018-10-05T19:42:37.181Z,99267.77
2018-10-05T19:45:06.508Z,99263.28
2018-10-05T19:47:35.084Z,99266.98
2018-10-05T19:50:03.676Z,99270.19
2018-10-05T19:52:32.192Z,99258.79
2018-10-05T19:55:01.177Z,99265.24
2018-10-05T19:57:31.844Z,99256.91
2018-10-05T20:00:02.147Z,99262.57
2018-10-05T20:02:30.688Z,99259.11
2018-10-05T20:05:07.067Z,99262.09
2018-10-05T20:07:35.944Z,99261.64
2018-10-05T20:10:05.298Z,99260.16
2018-10-05T20:12:33.777Z,99260.92
2018-10-05T20:15:02.366Z,99260.75
2018-10-05T20:17:31.450Z,99275.01
2018-10-05T20:20:00.136Z,99271.20
2018-10-05T20:22:28.672Z,99270.98
2018-10-05T20:24:57.846Z,99270.26
2018-10-05T20:27:33.177Z,99260.88
2018-10-05T20:30:01.931Z,99259.88
2018-10-05T20:32:30.723Z,99261.39
2018-10-05T20:35:00.508Z,99257.62
2018-10-05T20:37:29.169Z,99252.19
2018-10-05T20:39:57.585Z,99257.92
2018-10-05T20:42:26.097Z,99260.63
2018-10-05T20:44:54.685Z,99262.95
2018-10-05T20:47:23.220Z,99262.12
2018-10-05T20:49:51.781Z,99255.19
2018-10-05T20:52:20.346Z,99263.88
2018-10-05T20:54:48.872Z,99256.56
2018-10-05T20:57:17.425Z,99263.67
2018-10-05T20:59:48.093Z,99266.47
2018-10-05T21:02:21.306Z,99263.64
2018-10-05T21:04:50.645Z,99262.21
2018-10-05T21:07:19.221Z,99259.27
2018-10-05T21:09:47.843Z,99261.70
2018-10-05T21:12:16.308Z,99256.44
2018-10-05T21:14:44.980Z,99258.68
2018-10-05T21:17:14.436Z,99256.88
2018-10-05T21:19:44.225Z,99253.42
2018-10-05T21:22:12.986Z,99252.00
2018-10-05T21:24:41.552Z,99243.25
2018-10-05T21:27:10.145Z,99244.33
2018-10-05T21:29:39.396Z,99243.05
2018-10-05T21:32:08.010Z,99245.53
2018-10-05T21:34:37.769Z,99249.19
2018-10-05T21:37:06.524Z,99247.44
2018-10-05T21:39:35.201Z,99252.16
2018-10-05T21:42:04.485Z,99246.31
2018-10-05T21:44:33.061Z,99242.91
2018-10-05T21:47:01.608Z,99242.09
2018-10-05T21:49:30.209Z,99246.13
2018-10-05T21:51:58.749Z,99241.50
2018-10-05T21:54:27.292Z,99244.13
2018-10-05T21:56:56.188Z,99242.23
2018-10-05T21:59:25.325Z,99244.51
2018-10-05T22:01:54.576Z,99238.33
2018-10-05T22:04:23.120Z,99235.42
2018-10-05T22:06:52.448Z,99235.08
2018-10-05T22:09:21.511Z,99237.37
2018-10-05T22:11:50.224Z,99238.03
2018-10-05T22:14:18.777Z,99234.19
2018-10-05T22:16:47.359Z,99234.25
2018-10-05T22:19:16.023Z,99236.28
2018-10-05T22:21:44.628Z,99235.18
2018-10-05T22:24:13.149Z,99234.45
2018-10-05T22:26:42.177Z,99231.23
2018-10-05T22:29:11.192Z,99228.59
2018-10-05T22:31:39.760Z,99229.56
2018-10-05T22:34:08.394Z,99223.34
2018-10-05T22:36:37.232Z,99222.46
2018-10-05T22:39:11.798Z,99223.30
2018-10-05T22:41:40.480Z,99217.88
2018-10-05T22:44:09.218Z,99215.76
2018-10-05T22:46:37.829Z,99213.52
2018-10-05T22:49:06.684Z,99211.43
2018-10-05T22:51:35.277Z,99206.36
2018-10-05T22:54:03.813Z,99208.75
2018-10-05T22:56:33.788Z,99213.70
2018-10-05T22:59:09.128Z,99215.52
2018-10-05T23:01:38.341Z,99216.69
2018-10-05T23:04:08.348Z,99217.11
2018-10-05T23:06:38.309Z,99214.14
2018-10-05T23:09:09.664Z,99216.54
2018-10-05T23:11:39.425Z,99209.95
2018-10-05T23:14:21.606Z,99215.20
2018-10-05T23:17:13.009Z,99221.45
2018-10-05T23:19:42.557Z,99218.17
2018-10-05T23:22:11.120Z,99221.20
2018-10-05T23:24:40.028Z,99222.38
2018-10-05T23:27:09.065Z,99224.19
2018-10-05T23:29:38.533Z,99222.97
2018-10-05T23:32:07.433Z,99222.57
2018-10-05T23:34:36.504Z,99219.48
2018-10-05T23:37:05.984Z,99220.31
2018-10-05T23:39:35.246Z,99224.48
2018-10-05T23:42:05.037Z,99225.41
2018-10-05T23:44:33.593Z,99218.75
2018-10-05T23:47:02.209Z,99219.88
2018-10-05T23:49:31.816Z,99215.83
2018-10-05T23:52:11.337Z,99208.05
2018-10-05T23:54:40.848Z,99207.87
2018-10-05T23:57:10.053Z,99208.72
2018-10-05T23:59:39.592Z,99207.50
